Time;durP1;ratioP1;P1;durP2;ratioP2;P2;SDS_P1;SDS_P2;PMS_P1;PMS_P2;Temp;Humidity;BMP_temperature;BMP_pressure;BME280_temperature;BME280_humidity;BME280_pressure;Samples;Min_cycle;Max_cycle;Signal;HPM_P1;HPM_P2
2022/06/14 08:41:40;;;;;;;6.88;1.10;;;;;;;16.76;50.50;101288.00;4977483;28;20123;-74
2022/06/14 09:03:52;;;;;;;3.45;0.82;;;;;;;17.22;46.92;101271.69;4988943;28;20057;-75
2022/06/14 09:11:51;;;;;;;3.95;0.75;;;;;;;17.53;47.98;101261.63;4989670;28;20116;-75
2022/06/14 09:15:28;;;;;;;5.32;1.42;;;;;;;17.58;46.70;101260.38;4991300;28;20153;-76
2022/06/14 09:18:48;;;;;;;3.97;1.13;;;;;;;17.69;45.48;101256.97;4972272;28;20089;-76
2022/06/14 09:22:30;;;;;;;4.68;1.17;;;;;;;17.69;45.08;101249.03;4970887;28;20512;-76
2022/06/14 09:30:56;;;;;;;6.45;1.02;;;;;;;17.93;42.65;101237.69;4921879;29;20621;-75
2022/06/14 09:34:13;;;;;;;5.90;0.90;;;;;;;18.27;42.79;101236.91;4929008;29;20066;-76
2022/06/14 09:37:23;;;;;;;9.70;1.27;;;;;;;18.18;41.41;101237.59;4970346;28;20061;-75
2022/06/14 09:40:51;;;;;;;1.95;0.52;;;;;;;18.36;37.60;101230.94;4970527;28;20074;-76
2022/06/14 09:44:43;;;;;;;3.88;0.73;;;;;;;18.29;37.36;101224.44;4969987;28;20109;-75
2022/06/14 09:49:17;;;;;;;5.85;1.20;;;;;;;18.53;38.25;101231.50;4969739;28;20113;-75
2022/06/14 09:52:48;;;;;;;3.17;0.63;;;;;;;18.51;36.91;101228.13;4969800;28;20177;-75
2022/06/14 09:56:21;;;;;;;4.70;0.77;;;;;;;18.42;38.87;101223.53;4970589;28;20049;-75
2022/06/14 09:59:57;;;;;;;3.33;0.50;;;;;;;18.67;40.10;101223.38;4974975;28;20077;-75
2022/06/14 10:03:57;;;;;;;4.57;0.90;;;;;;;18.62;36.01;101220.22;4978455;28;20763;-75
2022/06/14 10:07:10;;;;;;;3.33;0.70;;;;;;;18.48;37.07;101199.25;4970521;28;20054;-75
2022/06/14 10:10:27;;;;;;;3.90;1.10;;;;;;;18.47;36.37;101201.03;4970622;28;20069;-75
2022/06/14 10:14:04;;;;;;;3.65;0.73;;;;;;;18.70;36.46;101195.81;4978861;28;20666;-75
2022/06/14 10:17:38;;;;;;;4.57;1.02;;;;;;;18.52;37.41;101192.75;4969546;28;20102;-76
2022/06/14 10:30:40;;;;;;;2.35;0.60;;;;;;;19.33;36.45;101172.41;4978889;28;20053;-75
2022/06/14 10:47:36;;;;;;;3.25;0.80;;;;;;;19.25;33.32;101165.09;4989800;28;20121;-76
2022/06/14 10:51:00;;;;;;;3.17;0.70;;;;;;;19.58;31.53;101171.31;4989619;28;20452;-76
2022/06/14 10:54:12;;;;;;;3.03;0.50;;;;;;;19.38;32.16;101164.97;4989812;28;20046;-76
2022/06/14 10:57:55;;;;;;;3.67;0.70;;;;;;;19.57;31.91;101159.88;4977379;28;20153;-75
2022/06/14 11:01:16;;;;;;;2.70;0.63;;;;;;;19.59;29.61;101157.94;4969549;28;20506;-75
2022/06/14 11:05:02;;;;;;;3.85;0.60;;;;;;;19.67;30.21;101154.69;4969338;28;20046;-76
2022/06/14 11:08:44;;;;;;;4.68;0.73;;;;;;;19.95;30.07;101154.16;4965439;28;20054;-76
2022/06/14 11:11:52;;;;;;;4.63;1.02;;;;;;;19.89;31.57;101152.00;4976070;28;20054;-76
2022/06/14 11:22:39;;;;;;;2.83;0.75;;;;;;;20.18;30.69;101131.00;4988985;28;20112;-76
2022/06/14 11:25:56;;;;;;;2.85;1.00;;;;;;;20.29;30.31;101132.75;4984696;28;20041;-76
2022/06/14 11:29:19;;;;;;;3.33;0.50;;;;;;;20.26;32.06;101132.19;4989521;28;20069;-76
2022/06/14 11:32:42;;;;;;;1.67;0.40;;;;;;;20.29;32.15;101123.94;4989710;28;20134;-76
2022/06/14 11:36:05;;;;;;;3.58;0.88;;;;;;;20.87;32.35;101119.06;4989124;28;20037;-76
2022/06/14 11:40:19;;;;;;;3.20;0.60;;;;;;;20.55;30.96;101112.03;4977249;28;20142;-76
2022/06/14 11:53:51;;;;;;;2.65;0.73;;;;;;;20.81;31.36;101096.50;4987366;28;20061;-76
2022/06/14 11:57:33;;;;;;;5.78;1.08;;;;;;;20.97;30.38;101085.38;4992015;28;20085;-76
2022/06/14 12:00:56;;;;;;;3.58;0.80;;;;;;;21.07;31.80;101080.94;4992507;28;20052;-76
2022/06/14 12:04:15;;;;;;;4.85;0.68;;;;;;;21.56;30.54;101075.75;4991388;28;20489;-78
2022/06/14 12:08:11;;;;;;;6.00;0.85;;;;;;;21.81;31.27;101077.03;4986490;28;20045;-78
2022/06/14 12:11:40;;;;;;;11.35;0.85;;;;;;;21.68;32.47;101071.16;4972645;28;20057;-78
2022/06/14 12:14:58;;;;;;;3.97;0.73;;;;;;;21.68;30.77;101073.81;4979511;28;20035;-78
2022/06/14 12:18:07;;;;;;;3.88;1.00;;;;;;;21.77;30.96;101067.66;4990346;28;20072;-78
2022/06/14 12:21:31;;;;;;;2.92;0.85;;;;;;;21.76;31.00;101065.97;4991172;28;20470;-78
2022/06/14 12:28:16;;;;;;;2.63;0.80;;;;;;;21.99;31.69;101062.06;5000844;28;20071;-78
2022/06/14 12:36:11;;;;;;;6.47;2.13;;;;;;;22.40;27.33;101056.53;4979138;28;20042;-78
2022/06/14 12:40:29;;;;;;;3.40;0.80;;;;;;;22.33;27.36;101050.09;4969875;28;20412;-78
2022/06/14 12:44:12;;;;;;;1.70;0.40;;;;;;;22.40;27.48;101049.41;4981652;28;20052;-78
2022/06/14 12:52:14;;;;;;;3.85;0.60;;;;;;;23.25;27.55;101023.50;4997143;28;20057;-76
2022/06/14 12:56:22;;;;;;;3.22;0.65;;;;;;;23.47;27.64;101021.38;4999806;28;20065;-76
2022/06/14 12:59:40;;;;;;;4.95;0.90;;;;;;;23.55;26.60;101018.81;4942541;28;20414;-78
2022/06/14 13:03:13;;;;;;;4.07;0.70;;;;;;;23.79;26.52;101013.69;4980914;28;20242;-78
2022/06/14 13:07:10;;;;;;;2.70;0.70;;;;;;;24.23;25.33;101003.00;4988694;28;20123;-76
2022/06/14 13:14:57;;;;;;;2.38;0.55;;;;;;;24.78;25.87;100994.63;4994309;28;20069;-75
2022/06/14 13:22:53;;;;;;;2.80;0.52;;;;;;;25.31;23.54;100984.59;4994945;28;20057;-76
2022/06/14 13:26:17;;;;;;;6.32;1.35;;;;;;;25.37;22.71;100980.44;4994456;28;20073;-76
2022/06/14 13:29:41;;;;;;;2.90;0.70;;;;;;;25.19;23.47;100978.72;4990882;28;20100;-76
2022/06/14 13:33:23;;;;;;;3.28;0.82;;;;;;;25.29;23.43;100982.06;4990896;28;20129;-77
2022/06/14 13:36:53;;;;;;;4.43;0.93;;;;;;;25.45;24.12;100975.06;4990088;28;20084;-77
2022/06/14 13:40:11;;;;;;;2.58;0.68;;;;;;;25.87;23.10;100964.22;4990326;28;20073;-76
2022/06/14 13:43:38;;;;;;;2.75;0.80;;;;;;;26.30;24.39;100962.13;4989488;28;20093;-77
2022/06/14 13:56:39;;;;;;;3.28;0.90;;;;;;;27.87;23.12;100939.56;4972057;28;20057;-75
2022/06/14 14:04:19;;;;;;;4.73;1.20;;;;;;;28.35;21.85;100933.81;5000245;28;20467;-76
2022/06/14 14:07:35;;;;;;;5.50;0.88;;;;;;;29.08;21.95;100924.81;4990185;28;20793;-72
2022/06/14 14:10:46;;;;;;;5.20;1.13;;;;;;;29.51;21.22;100934.72;4974651;28;20046;-74
2022/06/14 14:14:27;;;;;;;5.50;1.02;;;;;;;30.80;18.07;100922.47;5008093;28;20093;-76
2022/06/14 14:17:57;;;;;;;4.50;0.95;;;;;;;32.94;16.43;100915.72;4997570;28;20126;-75
2022/06/14 14:21:32;;;;;;;3.92;1.42;;;;;;;34.23;14.74;100913.34;4985405;28;20041;-76
2022/06/14 14:34:09;;;;;;;;;;;;;;;;;;;;;
2022/06/14 14:38:02;;;;;;;3.10;1.35;;;;;;;37.11;13.32;100888.00;4807263;29;20052;-77
2022/06/14 14:41:43;;;;;;;3.70;1.20;;;;;;;36.86;13.26;100887.53;4817256;29;20579;-77
2022/06/14 14:45:32;;;;;;;2.55;1.08;;;;;;;37.18;13.89;100874.19;4825841;29;20053;-78
2022/06/14 14:49:31;;;;;;;3.22;1.15;;;;;;;36.38;13.43;100875.16;4873882;29;20105;-77
2022/06/14 14:53:30;;;;;;;3.00;1.38;;;;;;;35.98;14.56;100875.97;4890048;29;20044;-76
2022/06/14 14:57:05;;;;;;;4.03;1.30;;;;;;;36.48;14.23;100875.38;4894027;29;20047;-76
2022/06/14 15:05:43;;;;;;;2.65;1.10;;;;;;;36.03;13.99;100865.22;4931444;28;20512;-76
2022/06/14 15:19:59;;;;;;;4.35;1.05;;;;;;;35.86;14.13;100852.31;4951812;29;20054;-76
2022/06/14 15:33:16;;;;;;;3.45;1.10;;;;;;;32.07;17.39;100855.75;4915633;29;20059;-75
2022/06/14 15:41:07;;;;;;;2.55;1.02;;;;;;;33.02;16.24;100842.31;4951113;29;20091;-76
2022/06/14 15:44:12;;;;;;;4.40;1.23;;;;;;;31.06;17.94;100837.13;4951018;29;20058;-76
2022/06/14 15:57:50;;;;;;;9.48;1.20;;;;;;;32.70;17.32;100816.28;4950125;29;20175;-76
2022/06/14 16:06:13;;;;;;;4.35;1.42;;;;;;;28.66;21.02;100817.94;4876529;29;20146;-76
2022/06/14 16:09:36;;;;;;;4.88;1.10;;;;;;;28.73;22.66;100808.06;4895334;29;20097;-77
2022/06/14 16:46:40;;;;;;;5.57;1.33;;;;;;;26.94;24.16;100795.69;4990936;28;20447;-76
2022/06/14 16:50:37;;;;;;;3.35;1.08;;;;;;;27.18;24.62;100788.44;4986523;28;20045;-76
2022/06/14 16:54:11;;;;;;;4.88;1.15;;;;;;;27.17;25.17;100792.16;4980042;28;20698;-76
2022/06/14 16:58:31;;;;;;;2.80;0.90;;;;;;;26.92;25.45;100789.63;4983628;28;20049;-76
2022/06/14 17:01:43;;;;;;;6.68;1.20;;;;;;;26.79;25.96;100786.75;4635576;28;9999955;-76
2022/06/14 17:05:27;;;;;;;5.78;0.93;;;;;;;26.53;26.30;100782.56;4971372;28;20564;-76
2022/06/14 17:24:58;;;;;;;5.35;1.30;;;;;;;25.67;27.92;100775.41;4971929;28;20031;-75
2022/06/14 17:40:37;;;;;;;3.95;1.00;;;;;;;25.01;28.23;100772.81;4996149;28;20058;-75
2022/06/14 17:43:46;;;;;;;2.42;0.90;;;;;;;24.98;28.07;100775.00;4972508;28;20103;-74
2022/06/14 17:46:56;;;;;;;4.78;1.70;;;;;;;24.86;29.56;100776.34;4971230;28;20101;-74
2022/06/14 17:50:42;;;;;;;2.28;0.93;;;;;;;24.75;29.13;100769.47;4971592;28;20112;-75
2022/06/14 17:54:17;;;;;;;4.55;0.90;;;;;;;24.55;28.19;100764.44;4969448;28;20037;-76
2022/06/14 17:57:34;;;;;;;3.72;0.90;;;;;;;24.53;32.14;100774.47;4971281;28;20045;-78
2022/06/14 18:00:56;;;;;;;3.53;0.80;;;;;;;24.30;32.95;100774.22;4951493;29;20049;-79
2022/06/14 18:04:17;;;;;;;5.10;0.98;;;;;;;24.24;33.42;100782.06;4956627;29;20066;-79
2022/06/14 18:08:13;;;;;;;5.25;0.73;;;;;;;23.79;31.36;100780.56;4950818;28;20069;-77
2022/06/14 18:11:26;;;;;;;4.15;1.23;;;;;;;23.46;32.20;100784.88;4971064;28;20106;-79
2022/06/14 18:14:37;;;;;;;2.70;0.80;;;;;;;23.14;33.18;100789.00;4970955;28;20081;-79
2022/06/14 18:23:23;;;;;;;6.40;1.02;;;;;;;23.08;34.93;100769.09;4970795;28;20120;-78
2022/06/14 18:27:50;;;;;;;4.20;0.85;;;;;;;23.17;34.93;100778.00;4964032;28;20070;-79
2022/06/14 18:31:26;;;;;;;3.63;1.17;;;;;;;22.94;36.21;100781.19;4965592;28;20057;-79
2022/06/14 18:34:51;;;;;;;2.75;1.08;;;;;;;22.45;37.11;100778.00;4970987;28;20125;-77
2022/06/14 18:38:35;;;;;;;5.28;0.88;;;;;;;22.20;39.03;100778.75;4991724;28;20397;-80
2022/06/14 18:42:07;;;;;;;4.85;1.00;;;;;;;21.75;42.69;100780.31;4985754;28;20093;-81
2022/06/14 18:45:19;;;;;;;3.67;0.70;;;;;;;21.81;40.00;100779.75;4975352;28;20085;-80
2022/06/14 18:48:58;;;;;;;2.90;0.85;;;;;;;21.76;41.21;100792.66;4994428;28;20045;-77
2022/06/14 18:52:14;;;;;;;2.97;0.90;;;;;;;21.97;39.64;100778.28;4993983;28;20049;-77
2022/06/14 18:55:28;;;;;;;3.05;1.00;;;;;;;21.68;42.82;100783.72;4993616;28;20057;-80
2022/06/14 18:58:59;;;;;;;3.30;0.68;;;;;;;21.22;44.93;100777.38;4997986;28;20085;-80
2022/06/14 19:02:43;;;;;;;7.03;1.15;;;;;;;20.76;45.73;100785.13;4972116;28;20137;-74
2022/06/14 19:05:58;;;;;;;4.68;1.02;;;;;;;20.54;47.47;100780.91;4974229;28;20077;-74
2022/06/14 19:09:29;;;;;;;5.43;0.80;;;;;;;20.44;47.93;100782.69;4974588;28;20046;-74
2022/06/14 19:12:44;;;;;;;3.20;0.90;;;;;;;20.15;47.75;100778.16;4974213;28;20117;-75
2022/06/14 19:16:07;;;;;;;4.25;1.10;;;;;;;20.00;48.11;100778.66;4975719;28;20046;-75
2022/06/14 19:19:18;;;;;;;3.23;0.60;;;;;;;19.91;48.89;100785.63;4989585;28;20133;-76
2022/06/14 19:22:51;;;;;;;3.15;0.85;;;;;;;19.76;48.98;100787.81;4994682;28;20050;-74
2022/06/14 19:26:20;;;;;;;9.98;1.08;;;;;;;19.68;49.02;100777.84;4993611;28;20089;-73
2022/06/14 19:29:56;;;;;;;3.03;1.02;;;;;;;19.54;49.20;100782.66;4994867;28;20057;-74
2022/06/14 19:33:40;;;;;;;3.33;1.08;;;;;;;19.31;49.50;100782.81;4975872;28;20129;-75
2022/06/14 19:36:57;;;;;;;3.30;1.02;;;;;;;19.25;49.13;100792.09;4976505;28;20513;-75
2022/06/14 19:40:07;;;;;;;3.53;0.98;;;;;;;19.13;49.84;100793.13;4975496;28;20112;-75
2022/06/14 19:43:33;;;;;;;5.13;1.23;;;;;;;18.94;51.55;100793.81;4976592;28;20309;-75
2022/06/14 19:47:06;;;;;;;;;;;;;;;;;;;;;
2022/06/14 20:05:48;;;;;;;2.63;0.88;;;;;;;18.24;52.12;100818.09;4892431;29;20629;-80
2022/06/14 20:08:56;;;;;;;2.85;0.70;;;;;;;18.13;52.38;100818.94;4879368;29;20450;-75
2022/06/14 20:12:07;;;;;;;3.38;0.68;;;;;;;18.04;52.12;100827.63;4903837;29;20579;-74
2022/06/14 20:15:35;;;;;;;3.33;0.82;;;;;;;17.89;52.10;100825.19;4955747;28;20042;-75
2022/06/14 20:19:20;;;;;;;6.10;1.00;;;;;;;17.83;52.83;100830.97;4971395;28;20081;-75
2022/06/14 20:22:46;;;;;;;3.38;0.90;;;;;;;17.69;54.15;100836.47;4953811;29;20105;-75
2022/06/14 20:31:46;;;;;;;2.47;0.70;;;;;;;17.44;55.08;100840.97;4978433;28;20497;-75
2022/06/14 20:34:55;;;;;;;4.82;1.00;;;;;;;17.40;55.39;100844.81;4978750;28;20077;-75
2022/06/14 20:38:05;;;;;;;4.30;1.00;;;;;;;17.20;55.50;100848.13;4977813;28;20085;-75
2022/06/14 20:41:13;;;;;;;3.83;0.82;;;;;;;17.19;54.59;100846.44;4978600;28;20520;-75
2022/06/14 20:44:23;;;;;;;4.70;0.90;;;;;;;17.15;54.93;100844.97;4976805;28;20045;-75
2022/06/14 20:47:53;;;;;;;5.28;1.33;;;;;;;17.00;54.76;100846.13;4981057;28;20045;-74
2022/06/14 20:51:17;;;;;;;5.13;0.98;;;;;;;16.89;55.65;100845.13;4999178;28;20049;-75
2022/06/14 20:54:27;;;;;;;5.28;0.95;;;;;;;16.79;56.57;100844.09;5014452;28;20255;-76
2022/06/14 20:57:45;;;;;;;3.28;1.10;;;;;;;16.83;57.77;100848.19;4999619;28;20305;-75
2022/06/14 21:01:00;;;;;;;11.57;0.93;;;;;;;16.66;57.93;100843.28;4991405;28;20449;-75
2022/06/14 21:04:45;;;;;;;3.85;1.10;;;;;;;16.66;57.92;100838.00;4981142;28;20045;-74
2022/06/14 21:07:56;;;;;;;5.07;1.00;;;;;;;16.57;57.91;100843.94;4990015;28;20066;-75
2022/06/14 21:11:22;;;;;;;3.58;1.02;;;;;;;16.46;57.91;100844.72;4972497;28;20137;-74
2022/06/14 21:14:41;;;;;;;4.15;0.90;;;;;;;16.45;58.20;100846.50;4972004;28;20509;-75
2022/06/14 21:17:51;;;;;;;5.20;1.23;;;;;;;16.37;58.72;100843.59;4970065;28;20045;-75
2022/06/14 21:21:03;;;;;;;2.75;0.80;;;;;;;16.27;59.03;100842.53;4970427;28;20049;-75
2022/06/14 21:24:13;;;;;;;2.90;1.10;;;;;;;16.08;59.67;100847.44;4972343;28;20357;-75
2022/06/14 21:27:22;;;;;;;4.28;1.20;;;;;;;16.10;60.46;100845.53;4977958;28;20352;-75
2022/06/14 21:30:34;;;;;;;4.45;1.15;;;;;;;15.97;60.57;100846.41;4979326;28;20468;-75
2022/06/14 21:34:05;;;;;;;4.60;1.00;;;;;;;15.93;60.86;100846.72;4970918;28;20433;-75
2022/06/14 21:37:29;;;;;;;3.88;1.00;;;;;;;15.86;61.06;100851.59;4969286;28;20073;-75
2022/06/14 21:40:38;;;;;;;3.13;1.10;;;;;;;15.71;61.61;100857.91;4971193;28;20089;-74
2022/06/14 21:47:50;;;;;;;3.78;0.93;;;;;;;15.51;62.82;100860.06;4968725;28;20058;-75
2022/06/14 21:51:49;;;;;;;11.40;0.95;;;;;;;15.46;62.69;100867.44;4970390;28;20410;-75
2022/06/14 21:54:56;;;;;;;6.05;0.90;;;;;;;15.39;62.59;100868.81;4971053;28;20093;-74
2022/06/14 22:07:33;;;;;;;6.82;1.30;;;;;;;15.08;63.25;100862.91;4969857;28;20057;-75
2022/06/14 22:10:41;;;;;;;4.00;1.38;;;;;;;15.02;62.85;100865.13;4981876;28;20402;-74
2022/06/14 22:13:52;;;;;;;5.65;1.00;;;;;;;15.00;62.97;100875.75;4976448;28;20061;-74
2022/06/14 22:17:03;;;;;;;3.63;1.27;;;;;;;14.81;64.12;100870.84;4982407;28;20054;-74
2022/06/14 22:20:17;;;;;;;2.97;0.90;;;;;;;14.76;65.18;100875.53;4989719;28;20473;-74
2022/06/14 22:24:38;;;;;;;4.40;0.93;;;;;;;14.77;64.14;100873.75;4979767;28;20161;-74
2022/06/14 22:27:06;;;;;;;4.63;1.13;;;;;;;14.62;64.71;100867.69;4984859;28;20050;-74
2022/06/14 22:41:50;;;;;;;4.82;1.40;;;;;;;14.40;64.98;100881.34;4969767;28;20092;-74
2022/06/14 22:45:24;;;;;;;3.60;1.27;;;;;;;14.24;65.88;100888.50;4969781;28;20421;-74
2022/06/14 22:48:33;;;;;;;3.40;1.20;;;;;;;14.17;66.14;100882.75;4969165;28;20046;-75
2022/06/14 22:51:46;;;;;;;2.20;0.85;;;;;;;14.22;66.33;100879.84;4973558;28;20141;-74
2022/06/14 22:55:00;;;;;;;4.20;1.08;;;;;;;14.07;66.29;100878.97;4970036;28;20054;-74
2022/06/14 22:58:19;;;;;;;2.83;1.17;;;;;;;13.95;66.75;100880.59;4971673;28;20042;-74
2022/06/14 23:01:28;;;;;;;2.92;1.00;;;;;;;13.95;66.78;100885.84;4972943;28;20124;-74
2022/06/14 23:04:40;;;;;;;10.52;1.25;;;;;;;13.89;67.48;100886.22;4973269;28;20054;-74
2022/06/14 23:07:52;;;;;;;3.35;0.80;;;;;;;13.91;67.47;100879.06;4973574;28;20070;-74
2022/06/14 23:11:04;;;;;;;3.15;1.05;;;;;;;14.12;67.10;100872.50;4972541;28;20049;-74
2022/06/14 23:14:18;;;;;;;5.50;1.00;;;;;;;13.80;67.98;100881.50;4972878;28;20046;-74
2022/06/14 23:17:24;;;;;;;3.55;1.10;;;;;;;13.72;67.88;100885.47;4973306;28;20156;-74
2022/06/14 23:20:31;;;;;;;3.42;1.25;;;;;;;13.48;68.39;100890.38;4973351;28;20053;-74
2022/06/14 23:23:37;;;;;;;3.58;1.20;;;;;;;13.46;68.84;100884.38;4972439;28;20614;-74
2022/06/14 23:26:43;;;;;;;3.85;1.38;;;;;;;13.40;69.79;100889.09;4972563;28;20432;-74
2022/06/14 23:29:51;;;;;;;4.32;1.05;;;;;;;13.34;69.83;100892.13;4973202;28;20106;-74
2022/06/14 23:33:01;;;;;;;6.25;1.00;;;;;;;13.33;69.53;100893.88;4953437;29;20513;-74
2022/06/14 23:36:09;;;;;;;4.10;1.17;;;;;;;13.29;69.87;100891.53;4953536;29;20050;-74
2022/06/14 23:39:15;;;;;;;4.03;1.25;;;;;;;13.26;70.00;100882.03;4953861;29;20427;-74
2022/06/14 23:42:24;;;;;;;6.05;0.85;;;;;;;13.26;69.68;100888.13;4953907;29;20128;-74
2022/06/14 23:45:38;;;;;;;2.83;1.15;;;;;;;13.18;69.95;100889.50;4951291;28;20046;-74
2022/06/14 23:48:44;;;;;;;2.65;0.90;;;;;;;13.34;69.19;100884.25;4961160;28;20050;-74
2022/06/14 23:51:50;;;;;;;4.72;1.08;;;;;;;13.39;69.08;100892.69;4949444;28;20122;-74
2022/06/14 23:54:56;;;;;;;5.75;1.33;;;;;;;13.57;67.90;100886.38;4960434;28;20584;-74
2022/06/14 23:58:01;;;;;;;2.95;1.08;;;;;;;13.29;69.04;100891.53;4970960;28;20073;-75
